sensor_id;sensor_type;location;lat;lon;timestamp;pressure;altitude;pressure_sealevel;temperature;humidity
73941;BME280;62294;48.554;10.202;2023-05-24T00:02:11;92384.34;;;11.37;100.00
73941;BME280;62294;48.554;10.202;2023-05-24T00:04:40;92378.56;;;11.27;100.00
73941;BME280;62294;48.554;10.202;2023-05-24T00:07:07;92358.03;;;11.27;100.00
73941;BME280;62294;48.554;10.202;2023-05-24T00:09:34;92355.84;;;11.12;100.00
73941;BME280;62294;48.554;10.202;2023-05-24T00:12:01;92339.59;;;11.05;100.00
73941;BME280;62294;48.554;10.202;2023-05-24T00:14:28;92333.34;;;10.93;100.00
73941;BME280;62294;48.554;10.202;2023-05-24T00:16:55;92304.56;;;10.86;100.00
73941;BME280;62294;48.554;10.202;2023-05-24T00:19:22;92302.53;;;10.75;100.00
73941;BME280;62294;48.554;10.202;2023-05-24T00:21:49;92295.63;;;10.65;100.00
73941;BME280;62294;48.554;10.202;2023-05-24T00:24:16;92289.22;;;10.66;100.00
73941;BME280;62294;48.554;10.202;2023-05-24T00:26:43;92285.75;;;10.57;100.00
73941;BME280;62294;48.554;10.202;2023-05-24T00:29:10;92268.44;;;10.51;100.00
73941;BME280;62294;48.554;10.202;2023-05-24T00:31:36;92242.81;;;10.55;100.00
73941;BME280;62294;48.554;10.202;2023-05-24T00:34:03;92201.72;;;10.61;100.00
73941;BME280;62294;48.554;10.202;2023-05-24T00:36:29;92175.81;;;10.58;100.00
73941;BME280;62294;48.554;10.202;2023-05-24T00:38:56;92153.00;;;10.57;100.00
73941;BME280;62294;48.554;10.202;2023-05-24T00:41:22;92146.63;;;10.49;100.00
73941;BME280;62294;48.554;10.202;2023-05-24T00:43:49;92144.25;;;10.56;100.00
73941;BME280;62294;48.554;10.202;2023-05-24T00:48:47;92133.97;;;10.55;100.00
73941;BME280;62294;48.554;10.202;2023-05-24T00:51:14;92156.94;;;10.51;100.00
73941;BME280;62294;48.554;10.202;2023-05-24T00:53:44;92161.31;;;10.47;100.00
73941;BME280;62294;48.554;10.202;2023-05-24T00:56:12;92159.72;;;10.46;100.00
73941;BME280;62294;48.554;10.202;2023-05-24T00:58:40;92161.44;;;10.50;100.00
73941;BME280;62294;48.554;10.202;2023-05-24T01:01:06;92174.72;;;10.50;100.00
73941;BME280;62294;48.554;10.202;2023-05-24T01:03:34;92185.19;;;10.47;100.00
73941;BME280;62294;48.554;10.202;2023-05-24T01:06:03;92186.75;;;10.48;100.00
73941;BME280;62294;48.554;10.202;2023-05-24T01:14:13;92228.28;;;10.44;100.00
73941;BME280;62294;48.554;10.202;2023-05-24T01:17:18;92241.69;;;10.39;100.00
73941;BME280;62294;48.554;10.202;2023-05-24T01:19:51;92270.88;;;10.30;100.00
73941;BME280;62294;48.554;10.202;2023-05-24T01:23:03;92256.22;;;10.41;100.00
73941;BME280;62294;48.554;10.202;2023-05-24T01:25:52;92278.84;;;10.39;100.00
73941;BME280;62294;48.554;10.202;2023-05-24T01:28:26;92289.34;;;10.44;100.00
73941;BME280;62294;48.554;10.202;2023-05-24T01:30:53;92296.22;;;10.45;100.00
73941;BME280;62294;48.554;10.202;2023-05-24T01:33:20;92289.19;;;10.49;100.00
73941;BME280;62294;48.554;10.202;2023-05-24T01:35:48;92291.38;;;10.47;100.00
73941;BME280;62294;48.554;10.202;2023-05-24T01:38:14;92292.78;;;10.53;100.00
73941;BME280;62294;48.554;10.202;2023-05-24T01:40:42;92306.84;;;10.53;100.00
73941;BME280;62294;48.554;10.202;2023-05-24T01:43:17;92309.66;;;10.57;100.00
73941;BME280;62294;48.554;10.202;2023-05-24T01:48:26;92363.81;;;10.47;100.00
73941;BME280;62294;48.554;10.202;2023-05-24T01:51:00;92388.78;;;10.38;100.00
73941;BME280;62294;48.554;10.202;2023-05-24T01:53:34;92366.66;;;10.51;100.00
73941;BME280;62294;48.554;10.202;2023-05-24T01:56:05;92365.59;;;10.60;100.00
73941;BME280;62294;48.554;10.202;2023-05-24T01:58:35;92370.47;;;10.67;100.00
73941;BME280;62294;48.554;10.202;2023-05-24T02:01:04;92405.69;;;10.50;100.00
73941;BME280;62294;48.554;10.202;2023-05-24T02:03:30;92413.50;;;10.47;100.00
73941;BME280;62294;48.554;10.202;2023-05-24T02:05:57;92423.47;;;10.50;100.00
73941;BME280;62294;48.554;10.202;2023-05-24T02:08:24;92446.56;;;10.41;100.00
73941;BME280;62294;48.554;10.202;2023-05-24T02:10:50;92450.91;;;10.37;100.00
73941;BME280;62294;48.554;10.202;2023-05-24T02:13:17;92463.72;;;10.35;100.00
73941;BME280;62294;48.554;10.202;2023-05-24T02:15:44;92464.13;;;10.28;100.00
73941;BME280;62294;48.554;10.202;2023-05-24T02:18:13;92479.81;;;10.16;100.00
73941;BME280;62294;48.554;10.202;2023-05-24T02:20:40;92491.16;;;10.08;100.00
73941;BME280;62294;48.554;10.202;2023-05-24T02:23:07;92479.16;;;10.11;100.00
73941;BME280;62294;48.554;10.202;2023-05-24T02:25:33;92493.31;;;10.06;100.00
73941;BME280;62294;48.554;10.202;2023-05-24T02:28:00;92490.47;;;10.02;100.00
73941;BME280;62294;48.554;10.202;2023-05-24T02:30:26;92495.88;;;9.97;100.00
73941;BME280;62294;48.554;10.202;2023-05-24T02:32:53;92495.72;;;9.94;100.00
73941;BME280;62294;48.554;10.202;2023-05-24T02:35:20;92500.97;;;9.85;100.00
73941;BME280;62294;48.554;10.202;2023-05-24T02:37:47;92499.38;;;9.84;100.00
73941;BME280;62294;48.554;10.202;2023-05-24T02:40:14;92496.34;;;9.77;100.00
73941;BME280;62294;48.554;10.202;2023-05-24T02:42:40;92496.19;;;9.74;100.00
73941;BME280;62294;48.554;10.202;2023-05-24T02:45:07;92484.00;;;9.73;100.00
73941;BME280;62294;48.554;10.202;2023-05-24T02:47:34;92478.53;;;9.69;100.00
73941;BME280;62294;48.554;10.202;2023-05-24T02:50:01;92476.94;;;9.68;100.00
73941;BME280;62294;48.554;10.202;2023-05-24T02:52:27;92476.78;;;9.65;100.00
73941;BME280;62294;48.554;10.202;2023-05-24T02:54:54;92469.09;;;9.63;100.00
73941;BME280;62294;48.554;10.202;2023-05-24T02:57:21;92470.31;;;9.57;100.00
73941;BME280;62294;48.554;10.202;2023-05-24T02:59:48;92461.88;;;9.55;100.00
73941;BME280;62294;48.554;10.202;2023-05-24T03:02:14;92462.75;;;9.51;100.00
73941;BME280;62294;48.554;10.202;2023-05-24T03:04:41;92441.84;;;9.49;100.00
73941;BME280;62294;48.554;10.202;2023-05-24T03:07:08;92437.63;;;9.48;100.00
73941;BME280;62294;48.554;10.202;2023-05-24T03:09:35;92431.44;;;9.53;100.00
73941;BME280;62294;48.554;10.202;2023-05-24T03:12:02;92427.50;;;9.50;100.00
73941;BME280;62294;48.554;10.202;2023-05-24T03:14:29;92421.41;;;9.50;100.00
73941;BME280;62294;48.554;10.202;2023-05-24T03:16:55;92412.81;;;9.44;100.00
73941;BME280;62294;48.554;10.202;2023-05-24T03:19:22;92414.19;;;9.42;100.00
73941;BME280;62294;48.554;10.202;2023-05-24T03:21:49;92412.25;;;9.34;100.00
73941;BME280;62294;48.554;10.202;2023-05-24T03:24:15;92419.72;;;9.32;100.00
73941;BME280;62294;48.554;10.202;2023-05-24T03:26:42;92412.75;;;9.22;100.00
73941;BME280;62294;48.554;10.202;2023-05-24T03:29:09;92412.09;;;9.16;100.00
73941;BME280;62294;48.554;10.202;2023-05-24T03:31:36;92409.66;;;9.06;100.00
73941;BME280;62294;48.554;10.202;2023-05-24T03:34:03;92407.41;;;9.00;100.00
73941;BME280;62294;48.554;10.202;2023-05-24T03:36:29;92416.34;;;8.90;100.00
73941;BME280;62294;48.554;10.202;2023-05-24T03:38:56;92407.66;;;8.90;100.00
73941;BME280;62294;48.554;10.202;2023-05-24T03:41:23;92413.94;;;8.80;100.00
73941;BME280;62294;48.554;10.202;2023-05-24T03:43:51;92397.25;;;8.80;100.00
73941;BME280;62294;48.554;10.202;2023-05-24T03:46:17;92395.28;;;8.72;100.00
73941;BME280;62294;48.554;10.202;2023-05-24T03:48:44;92371.16;;;8.87;100.00
73941;BME280;62294;48.554;10.202;2023-05-24T03:51:11;92368.13;;;8.80;100.00
73941;BME280;62294;48.554;10.202;2023-05-24T03:53:37;92369.19;;;8.79;100.00
73941;BME280;62294;48.554;10.202;2023-05-24T03:56:04;92367.56;;;8.83;100.00
73941;BME280;62294;48.554;10.202;2023-05-24T03:58:31;92342.91;;;8.96;100.00
73941;BME280;62294;48.554;10.202;2023-05-24T04:00:58;92344.06;;;9.03;100.00
73941;BME280;62294;48.554;10.202;2023-05-24T04:03:24;92335.69;;;9.10;100.00
73941;BME280;62294;48.554;10.202;2023-05-24T04:05:52;92356.03;;;9.01;100.00
73941;BME280;62294;48.554;10.202;2023-05-24T04:08:19;92343.22;;;9.16;100.00
73941;BME280;62294;48.554;10.202;2023-05-24T04:10:45;92331.00;;;9.29;100.00
73941;BME280;62294;48.554;10.202;2023-05-24T04:13:12;92335.88;;;9.36;100.00
73941;BME280;62294;48.554;10.202;2023-05-24T04:15:38;92344.03;;;9.39;100.00
73941;BME280;62294;48.554;10.202;2023-05-24T04:18:05;92367.13;;;9.25;100.00
73941;BME280;62294;48.554;10.202;2023-05-24T04:20:32;92360.41;;;9.41;100.00
73941;BME280;62294;48.554;10.202;2023-05-24T04:22:58;92371.00;;;9.41;100.00
73941;BME280;62294;48.554;10.202;2023-05-24T04:25:25;92387.88;;;9.45;100.00
73941;BME280;62294;48.554;10.202;2023-05-24T04:27:52;92409.69;;;9.42;100.00
73941;BME280;62294;48.554;10.202;2023-05-24T04:30:19;92419.09;;;9.48;100.00
73941;BME280;62294;48.554;10.202;2023-05-24T04:32:46;92439.69;;;9.51;100.00
73941;BME280;62294;48.554;10.202;2023-05-24T04:35:13;92455.19;;;9.58;100.00
73941;BME280;62294;48.554;10.202;2023-05-24T04:37:41;92470.09;;;9.67;100.00
73941;BME280;62294;48.554;10.202;2023-05-24T04:40:08;92496.72;;;9.62;100.00
73941;BME280;62294;48.554;10.202;2023-05-24T04:42:34;92504.91;;;9.74;100.00
73941;BME280;62294;48.554;10.202;2023-05-24T04:45:02;92507.13;;;9.94;100.00
73941;BME280;62294;48.554;10.202;2023-05-24T04:47:28;92536.78;;;9.96;100.00
73941;BME280;62294;48.554;10.202;2023-05-24T04:49:55;92557.38;;;10.13;100.00
73941;BME280;62294;48.554;10.202;2023-05-24T04:52:22;92582.78;;;10.28;100.00
73941;BME280;62294;48.554;10.202;2023-05-24T04:54:48;92648.16;;;10.24;100.00
73941;BME280;62294;48.554;10.202;2023-05-24T04:57:15;92688.59;;;10.43;100.00
73941;BME280;62294;48.554;10.202;2023-05-24T04:59:42;92718.44;;;10.62;100.00
73941;BME280;62294;48.554;10.202;2023-05-24T05:02:09;92776.66;;;10.72;100.00
73941;BME280;62294;48.554;10.202;2023-05-24T05:04:35;92872.19;;;10.50;100.00
73941;BME280;62294;48.554;10.202;2023-05-24T05:07:02;92926.56;;;10.66;100.00
73941;BME280;62294;48.554;10.202;2023-05-24T05:09:29;92970.34;;;10.82;100.00
73941;BME280;62294;48.554;10.202;2023-05-24T05:11:55;92987.19;;;11.05;100.00
73941;BME280;62294;48.554;10.202;2023-05-24T05:14:22;93038.19;;;11.07;100.00
73941;BME280;62294;48.554;10.202;2023-05-24T05:16:49;93114.72;;;10.91;100.00
73941;BME280;62294;48.554;10.202;2023-05-24T05:19:15;93179.31;;;10.73;100.00
73941;BME280;62294;48.554;10.202;2023-05-24T05:21:42;93216.94;;;10.61;100.00
73941;BME280;62294;48.554;10.202;2023-05-24T05:24:09;93206.44;;;10.89;100.00
73941;BME280;62294;48.554;10.202;2023-05-24T05:26:36;93287.78;;;10.66;100.00
73941;BME280;62294;48.554;10.202;2023-05-24T05:29:02;93315.25;;;10.56;100.00
73941;BME280;62294;48.554;10.202;2023-05-24T05:31:29;93336.84;;;10.50;100.00
73941;BME280;62294;48.554;10.202;2023-05-24T05:33:56;93321.53;;;10.65;100.00
73941;BME280;62294;48.554;10.202;2023-05-24T05:36:22;93342.16;;;10.74;100.00
73941;BME280;62294;48.554;10.202;2023-05-24T05:38:49;93347.09;;;10.80;100.00
73941;BME280;62294;48.554;10.202;2023-05-24T05:41:16;93398.16;;;10.77;100.00
73941;BME280;62294;48.554;10.202;2023-05-24T05:43:42;93454.19;;;10.52;100.00
73941;BME280;62294;48.554;10.202;2023-05-24T05:46:09;93461.06;;;10.58;100.00
73941;BME280;62294;48.554;10.202;2023-05-24T05:48:36;93444.16;;;10.73;100.00
73941;BME280;62294;48.554;10.202;2023-05-24T05:51:03;93468.75;;;10.83;100.00
73941;BME280;62294;48.554;10.202;2023-05-24T05:53:32;93481.72;;;11.13;100.00
73941;BME280;62294;48.554;10.202;2023-05-24T05:55:59;93527.63;;;11.19;100.00
73941;BME280;62294;48.554;10.202;2023-05-24T05:58:25;93531.94;;;11.57;100.00
73941;BME280;62294;48.554;10.202;2023-05-24T06:00:52;93556.00;;;11.71;100.00
73941;BME280;62294;48.554;10.202;2023-05-24T06:03:18;93585.88;;;12.05;100.00
73941;BME280;62294;48.554;10.202;2023-05-24T06:05:45;93661.66;;;12.13;100.00
73941;BME280;62294;48.554;10.202;2023-05-24T06:08:12;93741.69;;;12.21;100.00
73941;BME280;62294;48.554;10.202;2023-05-24T06:10:38;93932.94;;;11.41;100.00
73941;BME280;62294;48.554;10.202;2023-05-24T06:13:04;93946.06;;;11.23;100.00
73941;BME280;62294;48.554;10.202;2023-05-24T06:15:31;93910.66;;;11.32;100.00
73941;BME280;62294;48.554;10.202;2023-05-24T06:17:59;93950.75;;;10.82;100.00
73941;BME280;62294;48.554;10.202;2023-05-24T06:20:27;93913.56;;;10.82;100.00
73941;BME280;62294;48.554;10.202;2023-05-24T06:22:54;93884.28;;;10.97;100.00
73941;BME280;62294;48.554;10.202;2023-05-24T06:25:20;93924.56;;;10.50;100.00
73941;BME280;62294;48.554;10.202;2023-05-24T06:27:47;93871.66;;;10.59;100.00
73941;BME280;62294;48.554;10.202;2023-05-24T06:30:14;93810.91;;;10.96;100.00
73941;BME280;62294;48.554;10.202;2023-05-24T06:32:41;93797.44;;;11.21;100.00
73941;BME280;62294;48.554;10.202;2023-05-24T06:35:08;93837.88;;;11.18;100.00
73941;BME280;62294;48.554;10.202;2023-05-24T06:37:35;93784.69;;;11.86;100.00
73941;BME280;62294;48.554;10.202;2023-05-24T06:40:01;93842.19;;;12.16;100.00
73941;BME280;62294;48.554;10.202;2023-05-24T06:42:30;93890.75;;;12.31;100.00
73941;BME280;62294;48.554;10.202;2023-05-24T06:44:57;93897.50;;;12.95;100.00
73941;BME280;62294;48.554;10.202;2023-05-24T06:47:24;94027.97;;;12.86;100.00
73941;BME280;62294;48.554;10.202;2023-05-24T06:49:51;93999.88;;;14.20;100.00
73941;BME280;62294;48.554;10.202;2023-05-24T06:52:17;94162.47;;;15.20;100.00
73941;BME280;62294;48.554;10.202;2023-05-24T06:54:44;94477.00;;;14.89;100.00
73941;BME280;62294;48.554;10.202;2023-05-24T06:57:10;94682.44;;;14.92;100.00
73941;BME280;62294;48.554;10.202;2023-05-24T06:59:37;94821.06;;;14.80;100.00
73941;BME280;62294;48.554;10.202;2023-05-24T07:02:03;94865.31;;;15.11;100.00
73941;BME280;62294;48.554;10.202;2023-05-24T07:04:30;94956.38;;;15.65;100.00
73941;BME280;62294;48.554;10.202;2023-05-24T07:06:57;95070.41;;;16.25;100.00
73941;BME280;62294;48.554;10.202;2023-05-24T07:09:24;95252.88;;;15.59;100.00
73941;BME280;62294;48.554;10.202;2023-05-24T07:11:51;95246.84;;;16.23;100.00
73941;BME280;62294;48.554;10.202;2023-05-24T07:14:18;95303.22;;;15.73;100.00
73941;BME280;62294;48.554;10.202;2023-05-24T07:16:44;95376.53;;;14.17;100.00
73941;BME280;62294;48.554;10.202;2023-05-24T07:19:12;95252.13;;;13.85;100.00
73941;BME280;62294;48.554;10.202;2023-05-24T07:21:38;95171.50;;;13.98;100.00
73941;BME280;62294;48.554;10.202;2023-05-24T07:24:05;95144.75;;;13.93;100.00
73941;BME280;62294;48.554;10.202;2023-05-24T07:26:32;95136.66;;;13.21;100.00
73941;BME280;62294;48.554;10.202;2023-05-24T07:28:58;94992.38;;;13.42;100.00
73941;BME280;62294;48.554;10.202;2023-05-24T07:31:25;94921.19;;;13.98;100.00
73941;BME280;62294;48.554;10.202;2023-05-24T07:33:53;94933.97;;;13.56;100.00
73941;BME280;62294;48.554;10.202;2023-05-24T07:36:19;94929.00;;;13.08;100.00
73941;BME280;62294;48.554;10.202;2023-05-24T07:38:46;94887.88;;;12.94;100.00
73941;BME280;62294;48.554;10.202;2023-05-24T07:41:13;94840.91;;;12.88;100.00
73941;BME280;62294;48.554;10.202;2023-05-24T07:43:39;94793.44;;;12.90;100.00
73941;BME280;62294;48.554;10.202;2023-05-24T07:46:06;94778.75;;;12.72;100.00
73941;BME280;62294;48.554;10.202;2023-05-24T07:48:33;94733.16;;;12.78;100.00
73941;BME280;62294;48.554;10.202;2023-05-24T07:50:59;94696.69;;;13.19;100.00
73941;BME280;62294;48.554;10.202;2023-05-24T07:53:26;94712.97;;;13.18;100.00
73941;BME280;62294;48.554;10.202;2023-05-24T07:55:52;94678.50;;;13.57;100.00
73941;BME280;62294;48.554;10.202;2023-05-24T07:58:19;94687.69;;;14.09;100.00
73941;BME280;62294;48.554;10.202;2023-05-24T08:00:46;94834.88;;;13.22;100.00
73941;BME280;62294;48.554;10.202;2023-05-24T08:03:12;94771.66;;;13.38;100.00
73941;BME280;62294;48.554;10.202;2023-05-24T08:05:40;94789.81;;;13.31;100.00
73941;BME280;62294;48.554;10.202;2023-05-24T08:08:07;94746.81;;;13.73;100.00
73941;BME280;62294;48.554;10.202;2023-05-24T08:10:34;94777.28;;;13.67;100.00
73941;BME280;62294;48.554;10.202;2023-05-24T08:13:01;94787.34;;;14.10;100.00
73941;BME280;62294;48.554;10.202;2023-05-24T08:15:28;94827.63;;;14.29;100.00
73941;BME280;62294;48.554;10.202;2023-05-24T08:17:55;94893.75;;;14.97;100.00
73941;BME280;62294;48.554;10.202;2023-05-24T08:20:22;95116.75;;;14.00;100.00
73941;BME280;62294;48.554;10.202;2023-05-24T08:22:49;95139.03;;;14.31;100.00
73941;BME280;62294;48.554;10.202;2023-05-24T08:25:15;95236.06;;;13.43;100.00
73941;BME280;62294;48.554;10.202;2023-05-24T08:27:41;95161.41;;;13.58;100.00
73941;BME280;62294;48.554;10.202;2023-05-24T08:30:09;95136.63;;;13.16;100.00
73941;BME280;62294;48.554;10.202;2023-05-24T08:32:36;95055.06;;;13.35;100.00
73941;BME280;62294;48.554;10.202;2023-05-24T08:35:04;95011.28;;;13.31;100.00
73941;BME280;62294;48.554;10.202;2023-05-24T08:37:44;94998.44;;;13.18;100.00
73941;BME280;62294;48.554;10.202;2023-05-24T08:40:11;95006.97;;;12.73;100.00
73941;BME280;62294;48.554;10.202;2023-05-24T08:42:38;95071.25;;;11.86;100.00
73941;BME280;62294;48.554;10.202;2023-05-24T08:45:08;95017.56;;;11.99;100.00
73941;BME280;62294;48.554;10.202;2023-05-24T08:47:38;94922.25;;;12.90;100.00
73941;BME280;62294;48.554;10.202;2023-05-24T08:50:07;94986.56;;;12.52;100.00
73941;BME280;62294;48.554;10.202;2023-05-24T08:52:34;94961.91;;;12.30;100.00
73941;BME280;62294;48.554;10.202;2023-05-24T08:55:03;94919.66;;;12.53;100.00
73941;BME280;62294;48.554;10.202;2023-05-24T08:57:31;94866.06;;;13.17;100.00
73941;BME280;62294;48.554;10.202;2023-05-24T09:00:00;94930.13;;;13.12;100.00
73941;BME280;62294;48.554;10.202;2023-05-24T09:02:26;94984.19;;;13.02;100.00
73941;BME280;62294;48.554;10.202;2023-05-24T09:04:55;94993.91;;;12.76;100.00
73941;BME280;62294;48.554;10.202;2023-05-24T09:07:23;94969.47;;;12.95;100.00
73941;BME280;62294;48.554;10.202;2023-05-24T09:09:56;94946.75;;;13.39;100.00
73941;BME280;62294;48.554;10.202;2023-05-24T09:12:25;94978.56;;;12.94;100.00
73941;BME280;62294;48.554;10.202;2023-05-24T09:15:05;94975.69;;;13.05;100.00
73941;BME280;62294;48.554;10.202;2023-05-24T09:17:33;94972.44;;;13.03;100.00
73941;BME280;62294;48.554;10.202;2023-05-24T09:20:00;95033.63;;;12.41;100.00
73941;BME280;62294;48.554;10.202;2023-05-24T09:22:28;95002.09;;;12.28;100.00
73941;BME280;62294;48.554;10.202;2023-05-24T09:24:59;94960.56;;;12.32;100.00
73941;BME280;62294;48.554;10.202;2023-05-24T09:27:27;94920.19;;;12.55;100.00
73941;BME280;62294;48.554;10.202;2023-05-24T09:29:54;94883.06;;;12.91;100.00
73941;BME280;62294;48.554;10.202;2023-05-24T09:32:22;94887.25;;;13.59;100.00
73941;BME280;62294;48.554;10.202;2023-05-24T09:34:55;94985.03;;;13.08;100.00
73941;BME280;62294;48.554;10.202;2023-05-24T09:37:23;94965.47;;;13.69;100.00
73941;BME280;62294;48.554;10.202;2023-05-24T09:39:57;95025.53;;;13.57;100.00
73941;BME280;62294;48.554;10.202;2023-05-24T09:42:25;95074.25;;;13.27;100.00
73941;BME280;62294;48.554;10.202;2023-05-24T09:45:04;95013.06;;;13.97;100.00
73941;BME280;62294;48.554;10.202;2023-05-24T09:47:36;95126.50;;;14.42;100.00
73941;BME280;62294;48.554;10.202;2023-05-24T09:50:04;95147.94;;;14.87;100.00
73941;BME280;62294;48.554;10.202;2023-05-24T09:52:35;95305.75;;;14.82;100.00
73941;BME280;62294;48.554;10.202;2023-05-24T09:55:16;95378.47;;;14.27;100.00
73941;BME280;62294;48.554;10.202;2023-05-24T09:57:44;95310.50;;;14.65;100.00
73941;BME280;62294;48.554;10.202;2023-05-24T10:00:20;95344.50;;;14.22;100.00
73941;BME280;62294;48.554;10.202;2023-05-24T10:03:02;95368.56;;;14.22;100.00
73941;BME280;62294;48.554;10.202;2023-05-24T10:05:29;95339.50;;;14.83;100.00
73941;BME280;62294;48.554;10.202;2023-05-24T10:07:56;95417.09;;;14.93;100.00
73941;BME280;62294;48.554;10.202;2023-05-24T10:10:28;95507.25;;;15.39;100.00
73941;BME280;62294;48.554;10.202;2023-05-24T10:12:56;95565.13;;;16.27;100.00
73941;BME280;62294;48.554;10.202;2023-05-24T10:15:24;95698.03;;;15.56;100.00
73941;BME280;62294;48.554;10.202;2023-05-24T10:17:52;95778.25;;;15.10;100.00
73941;BME280;62294;48.554;10.202;2023-05-24T10:20:19;95845.84;;;15.48;100.00
73941;BME280;62294;48.554;10.202;2023-05-24T10:22:51;95845.66;;;15.92;100.00
73941;BME280;62294;48.554;10.202;2023-05-24T10:25:23;95920.22;;;14.98;100.00
73941;BME280;62294;48.554;10.202;2023-05-24T10:27:58;95879.94;;;16.63;100.00
73941;BME280;62294;48.554;10.202;2023-05-24T10:30:30;96135.63;;;15.12;100.00
73941;BME280;62294;48.554;10.202;2023-05-24T10:33:00;96263.84;;;14.80;100.00
73941;BME280;62294;48.554;10.202;2023-05-24T10:35:28;96227.84;;;14.20;100.00
73941;BME280;62294;48.554;10.202;2023-05-24T10:37:55;96178.69;;;14.21;100.00
73941;BME280;62294;48.554;10.202;2023-05-24T10:40:23;96166.47;;;13.85;100.00
73941;BME280;62294;48.554;10.202;2023-05-24T10:42:52;96143.59;;;13.89;100.00
73941;BME280;62294;48.554;10.202;2023-05-24T10:45:30;96101.25;;;13.70;100.00
73941;BME280;62294;48.554;10.202;2023-05-24T10:50:39;95976.22;;;13.83;100.00
73941;BME280;62294;48.554;10.202;2023-05-24T10:53:13;95986.91;;;14.28;100.00
73941;BME280;62294;48.554;10.202;2023-05-24T10:56:01;96027.00;;;13.83;100.00
73941;BME280;62294;48.554;10.202;2023-05-24T11:01:27;96033.75;;;14.02;100.00
73941;BME280;62294;48.554;10.202;2023-05-24T11:04:14;96008.84;;;13.85;100.00
73941;BME280;62294;48.554;10.202;2023-05-24T11:07:01;95990.63;;;13.66;100.00
73941;BME280;62294;48.554;10.202;2023-05-24T11:09:30;95978.22;;;14.38;100.00
73941;BME280;62294;48.554;10.202;2023-05-24T11:12:06;96003.88;;;14.72;100.00
73941;BME280;62294;48.554;10.202;2023-05-24T11:14:36;96052.28;;;14.54;100.00
73941;BME280;62294;48.554;10.202;2023-05-24T11:17:06;96098.75;;;13.91;100.00
73941;BME280;62294;48.554;10.202;2023-05-24T11:19:35;96062.06;;;13.59;100.00
73941;BME280;62294;48.554;10.202;2023-05-24T11:22:05;96027.00;;;13.55;100.00
73941;BME280;62294;48.554;10.202;2023-05-24T11:24:33;95998.06;;;13.64;100.00
73941;BME280;62294;48.554;10.202;2023-05-24T11:27:00;95999.19;;;13.68;100.00
73941;BME280;62294;48.554;10.202;2023-05-24T11:29:31;96043.69;;;13.62;100.00
73941;BME280;62294;48.554;10.202;2023-05-24T11:31:59;96026.66;;;13.51;100.00
73941;BME280;62294;48.554;10.202;2023-05-24T11:34:33;96025.25;;;13.21;100.00
73941;BME280;62294;48.554;10.202;2023-05-24T11:37:01;95984.84;;;13.29;100.00
73941;BME280;62294;48.554;10.202;2023-05-24T11:39:29;95966.03;;;13.24;100.00
73941;BME280;62294;48.554;10.202;2023-05-24T11:41:56;95989.75;;;12.97;100.00
73941;BME280;62294;48.554;10.202;2023-05-24T11:44:24;95992.28;;;13.27;100.00
73941;BME280;62294;48.554;10.202;2023-05-24T11:47:01;96029.56;;;13.10;100.00
73941;BME280;62294;48.554;10.202;2023-05-24T11:49:28;96071.84;;;12.37;100.00
73941;BME280;62294;48.554;10.202;2023-05-24T11:51:55;96020.50;;;13.00;100.00
73941;BME280;62294;48.554;10.202;2023-05-24T11:54:23;96028.63;;;12.93;100.00
73941;BME280;62294;48.554;10.202;2023-05-24T11:56:51;96029.44;;;13.05;100.00
73941;BME280;62294;48.554;10.202;2023-05-24T11:59:25;96004.97;;;13.08;100.00
73941;BME280;62294;48.554;10.202;2023-05-24T12:02:02;95964.56;;;13.73;100.00
73941;BME280;62294;48.554;10.202;2023-05-24T12:04:30;96002.84;;;13.62;100.00
73941;BME280;62294;48.554;10.202;2023-05-24T12:06:58;96046.38;;;12.76;100.00
73941;BME280;62294;48.554;10.202;2023-05-24T12:09:25;96005.22;;;13.07;100.00
73941;BME280;62294;48.554;10.202;2023-05-24T12:11:52;96017.41;;;13.42;100.00
73941;BME280;62294;48.554;10.202;2023-05-24T12:14:30;96004.91;;;13.88;100.00
73941;BME280;62294;48.554;10.202;2023-05-24T12:16:59;96008.31;;;14.00;100.00
73941;BME280;62294;48.554;10.202;2023-05-24T12:19:30;96043.69;;;13.62;100.00
73941;BME280;62294;48.554;10.202;2023-05-24T12:22:03;96055.66;;;13.20;100.00
73941;BME280;62294;48.554;10.202;2023-05-24T12:24:31;95982.19;;;13.57;100.00
73941;BME280;62294;48.554;10.202;2023-05-24T12:27:04;95971.34;;;13.64;100.00
73941;BME280;62294;48.554;10.202;2023-05-24T12:29:39;95931.34;;;13.52;100.00
73941;BME280;62294;48.554;10.202;2023-05-24T12:32:09;95927.81;;;13.35;100.00
73941;BME280;62294;48.554;10.202;2023-05-24T12:34:41;95946.13;;;13.03;100.00
73941;BME280;62294;48.554;10.202;2023-05-24T12:37:08;95931.25;;;13.19;100.00
73941;BME280;62294;48.554;10.202;2023-05-24T12:39:35;95918.81;;;13.52;100.00
73941;BME280;62294;48.554;10.202;2023-05-24T12:42:03;95948.56;;;13.44;100.00
73941;BME280;62294;48.554;10.202;2023-05-24T12:44:34;95948.75;;;12.87;100.00
73941;BME280;62294;48.554;10.202;2023-05-24T12:47:03;95931.09;;;12.86;100.00
73941;BME280;62294;48.554;10.202;2023-05-24T12:49:30;95910.44;;;12.93;100.00
73941;BME280;62294;48.554;10.202;2023-05-24T12:51:57;95906.13;;;12.92;100.00
73941;BME280;62294;48.554;10.202;2023-05-24T12:54:25;95908.34;;;13.06;100.00
73941;BME280;62294;48.554;10.202;2023-05-24T12:56:54;95920.09;;;13.22;100.00
73941;BME280;62294;48.554;10.202;2023-05-24T12:59:22;95924.22;;;13.01;100.00
73941;BME280;62294;48.554;10.202;2023-05-24T13:01:49;95929.28;;;13.14;100.00
73941;BME280;62294;48.554;10.202;2023-05-24T13:04:17;95932.75;;;13.26;100.00
73941;BME280;62294;48.554;10.202;2023-05-24T13:06:44;95930.38;;;13.41;100.00